Time;durP1;ratioP1;P1;durP2;ratioP2;P2;SDS_P1;SDS_P2;PMS_P1;PMS_P2;Temp;Humidity;BMP_temperature;BMP_pressure;BME280_temperature;BME280_humidity;BME280_pressure;Samples;Min_cycle;Max_cycle;Signal;HPM_P1;HPM_P2
2021/06/13 00:00:47;;;;;;;0.00;0.00;;;;;;;;;;5055786;28;20222;-67
2021/06/13 00:03:13;;;;;;;1.83;0.23;;;;;;;;;;5056296;28;20183;-66
2021/06/13 00:05:45;;;;;;;0.30;0.20;;;;;;;;;;5061264;28;20182;-68
2021/06/13 00:08:11;;;;;;;0.40;0.33;;;;;;;;;;5058817;28;20552;-66
2021/06/13 00:10:43;;;;;;;0.63;0.63;;;;;;;;;;5060658;28;20519;-66
2021/06/13 00:13:11;;;;;;;0.10;0.10;;;;;;;;;;5052822;28;20198;-65
2021/06/13 00:15:43;;;;;;;0.00;0.00;;;;;;;;;;5046066;28;20555;-64
2021/06/13 00:18:11;;;;;;;2.10;2.00;;;;;;;;;;5043507;28;20206;-65
2021/06/13 00:20:38;;;;;;;0.00;0.00;;;;;;;;;;5051591;28;20931;-64
2021/06/13 00:23:07;;;;;;;0.00;0.00;;;;;;;;;;5064040;28;20189;-65
2021/06/13 00:25:33;;;;;;;0.20;0.20;;;;;;;;;;5050380;28;20193;-65
2021/06/13 00:28:02;;;;;;;0.07;0.07;;;;;;;;;;5052037;28;20226;-65
2021/06/13 00:30:38;;;;;;;1.60;1.20;;;;;;;;;;5047565;28;20198;-65
2021/06/13 00:33:05;;;;;;;0.17;0.17;;;;;;;;;;5050346;28;20198;-66
2021/06/13 00:35:32;;;;;;;0.00;0.00;;;;;;;;;;5050942;28;20190;-66
2021/06/13 00:37:59;;;;;;;0.00;0.00;;;;;;;;;;5054722;28;20213;-66
2021/06/13 00:40:30;;;;;;;0.00;0.00;;;;;;;;;;5047765;28;20209;-66
2021/06/13 00:42:56;;;;;;;0.00;0.00;;;;;;;;;;5052966;28;20214;-66
2021/06/13 00:45:23;;;;;;;0.00;0.00;;;;;;;;;;5050665;28;20285;-66
2021/06/13 00:47:51;;;;;;;0.87;0.87;;;;;;;;;;5051062;28;20190;-65
2021/06/13 00:50:30;;;;;;;0.03;0.03;;;;;;;;;;5050186;28;20675;-66
2021/06/13 00:53:05;;;;;;;0.00;0.00;;;;;;;;;;5052288;28;20181;-65
2021/06/13 00:55:36;;;;;;;0.00;0.00;;;;;;;;;;5056382;28;20197;-65
2021/06/13 00:58:05;;;;;;;0.10;0.10;;;;;;;;;;5053152;28;20304;-65
2021/06/13 01:00:32;;;;;;;0.00;0.00;;;;;;;;;;5052079;28;20238;-65
2021/06/13 01:02:59;;;;;;;0.03;0.03;;;;;;;;;;5057427;28;20654;-65
2021/06/13 01:05:26;;;;;;;0.00;0.00;;;;;;;;;;5059889;28;20286;-64
2021/06/13 01:07:53;;;;;;;0.00;0.00;;;;;;;;;;5051863;28;20276;-65
2021/06/13 01:10:25;;;;;;;2.13;1.80;;;;;;;;;;5056467;28;20183;-64
2021/06/13 01:12:59;;;;;;;0.00;0.00;;;;;;;;;;5057014;28;20693;-65
2021/06/13 01:15:30;;;;;;;2.07;1.80;;;;;;;;;;5056730;28;20194;-65
2021/06/13 01:18:10;;;;;;;0.00;0.00;;;;;;;;;;5059485;28;20182;-65
2021/06/13 01:20:53;;;;;;;0.00;0.00;;;;;;;;;;5054406;28;20212;-65
2021/06/13 01:23:25;;;;;;;0.00;0.00;;;;;;;;;;5054916;28;20194;-65
2021/06/13 01:26:08;;;;;;;0.00;0.00;;;;;;;;;;5057703;28;20194;-65
2021/06/13 01:28:55;;;;;;;0.00;0.00;;;;;;;;;;5054928;28;20216;-65
2021/06/13 01:31:29;;;;;;;0.00;0.00;;;;;;;;;;5057805;28;20199;-66
2021/06/13 01:34:00;;;;;;;0.00;0.00;;;;;;;;;;5055809;28;20196;-66
2021/06/13 01:36:27;;;;;;;0.00;0.00;;;;;;;;;;5054401;28;20374;-66
2021/06/13 01:38:54;;;;;;;0.00;0.00;;;;;;;;;;5054204;28;20580;-67
2021/06/13 01:41:32;;;;;;;0.10;0.10;;;;;;;;;;5055051;28;20193;-64
2021/06/13 01:43:59;;;;;;;0.00;0.00;;;;;;;;;;5055891;28;20591;-65
2021/06/13 01:46:27;;;;;;;0.10;0.10;;;;;;;;;;5050064;28;20197;-68
2021/06/13 01:48:54;;;;;;;0.00;0.00;;;;;;;;;;5056812;28;20189;-65
2021/06/13 01:51:22;;;;;;;0.10;0.10;;;;;;;;;;5059059;28;20583;-66
2021/06/13 01:53:50;;;;;;;0.00;0.00;;;;;;;;;;5061150;28;20190;-65
2021/06/13 01:56:17;;;;;;;0.00;0.00;;;;;;;;;;5055719;28;20583;-65
2021/06/13 01:58:45;;;;;;;0.10;0.10;;;;;;;;;;5054212;28;20313;-65
2021/06/13 02:01:14;;;;;;;0.27;0.27;;;;;;;;;;5054386;28;20598;-65
2021/06/13 02:03:44;;;;;;;0.00;0.00;;;;;;;;;;5053756;28;20505;-65
2021/06/13 02:06:14;;;;;;;0.00;0.00;;;;;;;;;;5058596;28;20179;-65
2021/06/13 02:08:41;;;;;;;0.00;0.00;;;;;;;;;;5058364;28;20696;-65
2021/06/13 02:11:11;;;;;;;0.00;0.00;;;;;;;;;;5057543;28;20190;-65
2021/06/13 02:13:41;;;;;;;0.00;0.00;;;;;;;;;;5058543;28;20194;-65
2021/06/13 02:16:10;;;;;;;0.00;0.00;;;;;;;;;;5057531;28;20964;-65
2021/06/13 02:18:37;;;;;;;0.00;0.00;;;;;;;;;;5056082;28;20331;-65
2021/06/13 02:21:06;;;;;;;0.00;0.00;;;;;;;;;;5049834;28;20213;-65
2021/06/13 02:23:33;;;;;;;0.13;0.13;;;;;;;;;;5052045;28;20281;-66
2021/06/13 02:25:59;;;;;;;0.00;0.00;;;;;;;;;;5060267;28;20191;-66
2021/06/13 02:28:29;;;;;;;0.00;0.00;;;;;;;;;;5054356;28;20197;-65
2021/06/13 02:30:56;;;;;;;0.00;0.00;;;;;;;;;;5055957;28;20382;-65
2021/06/13 02:33:23;;;;;;;0.10;0.10;;;;;;;;;;5062744;28;20312;-65
2021/06/13 02:35:58;;;;;;;0.17;0.17;;;;;;;;;;5054611;28;20197;-65
2021/06/13 02:38:24;;;;;;;0.93;0.40;;;;;;;;;;5056346;28;20643;-65
2021/06/13 02:40:54;;;;;;;0.00;0.00;;;;;;;;;;5056175;28;20182;-65
2021/06/13 02:43:22;;;;;;;0.00;0.00;;;;;;;;;;5056346;28;20270;-65
2021/06/13 02:45:49;;;;;;;0.00;0.00;;;;;;;;;;5056622;28;20182;-65
2021/06/13 02:48:16;;;;;;;0.00;0.00;;;;;;;;;;5054408;28;20186;-65
2021/06/13 02:50:43;;;;;;;0.33;0.33;;;;;;;;;;5057167;28;20815;-66
2021/06/13 02:53:09;;;;;;;0.43;0.20;;;;;;;;;;5056222;28;20214;-66
2021/06/13 02:55:42;;;;;;;0.00;0.00;;;;;;;;;;5053943;28;20190;-66
2021/06/13 02:58:27;;;;;;;0.00;0.00;;;;;;;;;;5057863;28;21358;-65
2021/06/13 03:01:00;;;;;;;0.00;0.00;;;;;;;;;;5056675;28;20597;-66
2021/06/13 03:03:27;;;;;;;0.00;0.00;;;;;;;;;;5056024;28;20827;-66
2021/06/13 03:05:57;;;;;;;4.07;0.57;;;;;;;;;;5053180;28;20278;-66
2021/06/13 03:08:26;;;;;;;8.17;3.03;;;;;;;;;;5054864;28;20190;-65
2021/06/13 03:10:53;;;;;;;0.73;0.63;;;;;;;;;;5056269;28;20205;-64
2021/06/13 03:13:24;;;;;;;0.10;0.10;;;;;;;;;;5057765;28;20189;-65
2021/06/13 03:15:51;;;;;;;0.27;0.27;;;;;;;;;;5058132;28;20217;-65
2021/06/13 03:18:18;;;;;;;0.40;0.30;;;;;;;;;;5061301;28;20201;-64
2021/06/13 03:20:45;;;;;;;1.90;0.73;;;;;;;;;;5059543;28;20198;-65
2021/06/13 03:23:12;;;;;;;0.50;0.33;;;;;;;;;;5058330;28;20643;-64
2021/06/13 03:25:44;;;;;;;0.00;0.00;;;;;;;;;;5059429;28;20221;-65
2021/06/13 03:28:12;;;;;;;0.00;0.00;;;;;;;;;;5059393;28;20193;-64
2021/06/13 03:30:41;;;;;;;0.00;0.00;;;;;;;;;;5058109;28;20190;-64
2021/06/13 03:33:12;;;;;;;0.37;0.37;;;;;;;;;;5056961;28;20189;-65
2021/06/13 03:35:41;;;;;;;0.13;0.03;;;;;;;;;;5053359;28;20191;-64
2021/06/13 03:38:13;;;;;;;0.20;0.17;;;;;;;;;;5061109;28;20536;-65
2021/06/13 03:40:40;;;;;;;0.00;0.00;;;;;;;;;;5064079;28;20206;-65
2021/06/13 03:43:09;;;;;;;6.03;0.70;;;;;;;;;;5057116;28;20220;-65
2021/06/13 03:45:36;;;;;;;0.00;0.00;;;;;;;;;;5061054;28;20265;-65
2021/06/13 03:48:04;;;;;;;0.10;0.10;;;;;;;;;;5058433;28;20210;-65
2021/06/13 03:50:34;;;;;;;0.30;0.30;;;;;;;;;;5062534;28;20256;-65
2021/06/13 03:53:05;;;;;;;0.00;0.00;;;;;;;;;;5062074;28;20204;-65
2021/06/13 03:55:34;;;;;;;0.10;0.10;;;;;;;;;;5061305;28;20187;-65
2021/06/13 03:58:04;;;;;;;0.00;0.00;;;;;;;;;;5062331;28;20572;-65
2021/06/13 04:00:31;;;;;;;0.00;0.00;;;;;;;;;;5048945;28;20222;-65
2021/06/13 04:02:58;;;;;;;0.00;0.00;;;;;;;;;;5067569;28;20719;-64
2021/06/13 04:05:25;;;;;;;0.00;0.00;;;;;;;;;;5056051;28;20189;-65
2021/06/13 04:07:55;;;;;;;2.73;1.60;;;;;;;;;;5062000;28;20988;-65
2021/06/13 04:10:31;;;;;;;1.20;0.50;;;;;;;;;;5058278;28;20189;-65
2021/06/13 04:12:58;;;;;;;0.00;0.00;;;;;;;;;;5059401;28;20307;-66
2021/06/13 04:15:25;;;;;;;0.00;0.00;;;;;;;;;;5058066;28;20183;-66
2021/06/13 04:17:53;;;;;;;0.00;0.00;;;;;;;;;;5055290;28;20228;-65
2021/06/13 04:20:20;;;;;;;0.20;0.10;;;;;;;;;;5055265;28;20206;-65
2021/06/13 04:22:47;;;;;;;0.17;0.17;;;;;;;;;;5058331;28;20174;-66
2021/06/13 04:25:16;;;;;;;0.00;0.00;;;;;;;;;;5058490;28;20206;-65
2021/06/13 04:27:46;;;;;;;0.00;0.00;;;;;;;;;;5054000;28;20181;-66
2021/06/13 04:30:13;;;;;;;12.83;0.83;;;;;;;;;;5050223;28;20985;-66
2021/06/13 04:32:39;;;;;;;0.10;0.10;;;;;;;;;;5054901;28;20174;-66
2021/06/13 04:35:06;;;;;;;0.47;0.17;;;;;;;;;;5057633;28;20433;-65
2021/06/13 04:37:33;;;;;;;0.13;0.10;;;;;;;;;;5056113;28;21420;-65
2021/06/13 04:40:02;;;;;;;0.00;0.00;;;;;;;;;;5053461;28;20202;-65
2021/06/13 04:42:31;;;;;;;0.30;0.30;;;;;;;;;;5055109;28;20190;-65
2021/06/13 04:44:58;;;;;;;0.63;0.40;;;;;;;;;;5057211;28;20182;-65
2021/06/13 04:47:24;;;;;;;0.17;0.17;;;;;;;;;;5056666;28;20179;-66
2021/06/13 04:49:54;;;;;;;0.70;0.27;;;;;;;;;;5058240;28;20186;-65
2021/06/13 04:52:22;;;;;;;0.10;0.10;;;;;;;;;;5057539;28;20868;-66
2021/06/13 04:54:49;;;;;;;0.27;0.17;;;;;;;;;;5057532;28;20202;-65
2021/06/13 04:57:15;;;;;;;0.00;0.00;;;;;;;;;;5051260;28;21089;-65
2021/06/13 04:59:42;;;;;;;0.23;0.20;;;;;;;;;;5052467;28;20338;-65
2021/06/13 05:02:08;;;;;;;0.00;0.00;;;;;;;;;;5048024;28;20299;-65
2021/06/13 05:04:35;;;;;;;0.23;0.23;;;;;;;;;;5051179;28;20211;-65
2021/06/13 05:07:03;;;;;;;0.43;0.43;;;;;;;;;;5050912;28;20238;-65
2021/06/13 05:09:35;;;;;;;0.00;0.00;;;;;;;;;;5052470;28;20791;-65
2021/06/13 05:12:02;;;;;;;0.00;0.00;;;;;;;;;;5054145;28;20181;-65
2021/06/13 05:14:31;;;;;;;5.50;0.63;;;;;;;;;;5050859;28;20184;-65
2021/06/13 05:16:58;;;;;;;0.20;0.20;;;;;;;;;;5049581;28;22005;-65
2021/06/13 05:19:29;;;;;;;0.00;0.00;;;;;;;;;;5050809;28;21005;-66
2021/06/13 05:21:55;;;;;;;0.00;0.00;;;;;;;;;;5057444;28;20191;-65
2021/06/13 05:24:22;;;;;;;0.00;0.00;;;;;;;;;;5057983;28;20193;-65
2021/06/13 05:26:51;;;;;;;0.00;0.00;;;;;;;;;;5052126;28;20194;-65
2021/06/13 05:29:18;;;;;;;0.40;0.30;;;;;;;;;;5051301;28;20791;-65
2021/06/13 05:31:44;;;;;;;0.00;0.00;;;;;;;;;;5050893;28;20178;-66
2021/06/13 05:34:11;;;;;;;0.00;0.00;;;;;;;;;;5051534;28;20181;-65
2021/06/13 05:36:40;;;;;;;2.17;1.97;;;;;;;;;;5049965;28;20174;-65
2021/06/13 05:39:06;;;;;;;0.00;0.00;;;;;;;;;;5052601;28;20180;-65
2021/06/13 05:41:37;;;;;;;0.00;0.00;;;;;;;;;;5051927;28;20198;-66
2021/06/13 05:44:07;;;;;;;0.00;0.00;;;;;;;;;;5057379;28;20193;-66
2021/06/13 05:46:33;;;;;;;0.00;0.00;;;;;;;;;;5062499;28;20187;-66
2021/06/13 05:49:00;;;;;;;0.47;0.37;;;;;;;;;;5059854;28;20662;-66
2021/06/13 05:51:26;;;;;;;0.30;0.20;;;;;;;;;;5057951;28;20201;-66
2021/06/13 05:53:53;;;;;;;0.00;0.00;;;;;;;;;;5062554;28;20278;-66
2021/06/13 05:56:20;;;;;;;0.00;0.00;;;;;;;;;;5059280;28;20187;-66
2021/06/13 05:58:46;;;;;;;0.43;0.27;;;;;;;;;;5056172;28;20918;-65
2021/06/13 06:01:13;;;;;;;0.40;0.40;;;;;;;;;;5053956;28;20231;-66
2021/06/13 06:03:39;;;;;;;0.23;0.23;;;;;;;;;;5055800;28;20263;-65
2021/06/13 06:06:06;;;;;;;0.20;0.20;;;;;;;;;;5058571;28;20175;-65
2021/06/13 06:08:32;;;;;;;0.00;0.00;;;;;;;;;;5057063;28;20181;-65
2021/06/13 06:10:59;;;;;;;0.20;0.13;;;;;;;;;;5058853;28;20331;-65
2021/06/13 06:13:28;;;;;;;0.10;0.10;;;;;;;;;;5057635;28;20191;-65
2021/06/13 06:16:01;;;;;;;0.00;0.00;;;;;;;;;;5054655;28;20222;-65
2021/06/13 06:18:31;;;;;;;0.00;0.00;;;;;;;;;;5053801;28;20188;-65
2021/06/13 06:20:57;;;;;;;0.00;0.00;;;;;;;;;;5061695;28;20551;-65
2021/06/13 06:23:24;;;;;;;0.00;0.00;;;;;;;;;;5062524;28;20187;-65
2021/06/13 06:25:50;;;;;;;0.00;0.00;;;;;;;;;;5071053;28;20196;-65
2021/06/13 06:28:17;;;;;;;0.50;0.30;;;;;;;;;;5051296;28;20623;-65
2021/06/13 06:30:43;;;;;;;0.00;0.00;;;;;;;;;;5055871;28;20187;-65
2021/06/13 06:33:12;;;;;;;0.00;0.00;;;;;;;;;;5052887;28;20206;-65
2021/06/13 06:35:39;;;;;;;0.40;0.33;;;;;;;;;;5054913;28;20196;-65
2021/06/13 06:38:06;;;;;;;0.10;0.10;;;;;;;;;;5055227;28;20201;-65
2021/06/13 06:40:35;;;;;;;0.17;0.17;;;;;;;;;;5055186;28;21465;-65
2021/06/13 06:43:04;;;;;;;0.00;0.00;;;;;;;;;;5053207;28;20186;-65
2021/06/13 06:45:33;;;;;;;0.00;0.00;;;;;;;;;;5054961;28;20699;-65
2021/06/13 06:48:02;;;;;;;0.00;0.00;;;;;;;;;;5054587;28;20290;-65
2021/06/13 06:50:31;;;;;;;0.03;0.03;;;;;;;;;;5056669;28;20187;-65
2021/06/13 06:52:57;;;;;;;0.00;0.00;;;;;;;;;;5061984;28;20182;-65
2021/06/13 06:55:24;;;;;;;0.00;0.00;;;;;;;;;;5059025;28;20199;-65
2021/06/13 06:57:51;;;;;;;0.00;0.00;;;;;;;;;;5056856;28;20189;-65
2021/06/13 07:00:18;;;;;;;0.47;0.23;;;;;;;;;;5053325;28;20329;-65
2021/06/13 07:02:46;;;;;;;0.13;0.13;;;;;;;;;;5053932;28;21165;-65
2021/06/13 07:05:13;;;;;;;0.00;0.00;;;;;;;;;;5057195;28;20181;-65
2021/06/13 07:07:39;;;;;;;0.10;0.10;;;;;;;;;;5055209;28;20183;-66
2021/06/13 07:10:07;;;;;;;3.20;0.30;;;;;;;;;;5063288;28;20181;-65
2021/06/13 07:12:33;;;;;;;0.20;0.20;;;;;;;;;;5056161;28;20187;-65
2021/06/13 07:15:02;;;;;;;0.00;0.00;;;;;;;;;;5055542;28;20185;-64
2021/06/13 07:17:31;;;;;;;0.00;0.00;;;;;;;;;;5053544;28;20678;-65
2021/06/13 07:20:00;;;;;;;0.00;0.00;;;;;;;;;;5054234;28;21029;-64
2021/06/13 07:22:29;;;;;;;9.33;1.07;;;;;;;;;;5058811;28;20178;-65
2021/06/13 07:24:57;;;;;;;0.10;0.10;;;;;;;;;;5056369;28;20194;-65
2021/06/13 07:27:26;;;;;;;0.00;0.00;;;;;;;;;;5056476;28;20182;-65
2021/06/13 07:29:53;;;;;;;0.00;0.00;;;;;;;;;;5051851;28;20202;-65
2021/06/13 07:32:22;;;;;;;0.30;0.30;;;;;;;;;;5052108;28;20186;-65
2021/06/13 07:34:48;;;;;;;2.63;1.70;;;;;;;;;;5052266;28;20195;-65
2021/06/13 07:37:15;;;;;;;2.83;0.30;;;;;;;;;;5054180;28;20186;-65
2021/06/13 07:39:42;;;;;;;0.00;0.00;;;;;;;;;;5056361;28;20675;-65
2021/06/13 07:42:09;;;;;;;0.00;0.00;;;;;;;;;;5059700;28;20321;-65
2021/06/13 07:44:35;;;;;;;0.37;0.27;;;;;;;;;;5059053;28;20739;-65
2021/06/13 07:47:04;;;;;;;0.10;0.10;;;;;;;;;;5052520;28;20274;-65
2021/06/13 07:49:31;;;;;;;6.30;2.10;;;;;;;;;;5051287;28;20189;-65
2021/06/13 07:52:00;;;;;;;0.27;0.20;;;;;;;;;;5054783;28;20826;-65
2021/06/13 07:54:30;;;;;;;0.00;0.00;;;;;;;;;;5052547;28;20369;-65
2021/06/13 07:56:57;;;;;;;0.30;0.30;;;;;;;;;;5051331;28;20544;-65
2021/06/13 07:59:23;;;;;;;0.20;0.20;;;;;;;;;;5049457;28;20187;-65
2021/06/13 08:01:52;;;;;;;0.90;0.60;;;;;;;;;;5057190;28;20257;-65
2021/06/13 08:04:19;;;;;;;1.00;0.53;;;;;;;;;;5055615;28;20686;-65
2021/06/13 13:11:08;;;;;;;0.20;0.20;;;;;;;;;;5075961;27;20536;-67
2021/06/13 13:13:36;;;;;;;1.20;0.77;;;;;;;;;;5074682;28;21678;-66
2021/06/13 13:16:04;;;;;;;0.00;0.00;;;;;;;;;;5074519;28;20385;-66
2021/06/13 13:18:40;;;;;;;0.20;0.20;;;;;;;;;;5072678;28;20189;-67
2021/06/13 13:21:08;;;;;;;0.00;0.00;;;;;;;;;;5074574;28;20834;-67
2021/06/13 13:23:42;;;;;;;0.00;0.00;;;;;;;;;;5074149;28;20181;-67
2021/06/13 13:26:08;;;;;;;0.00;0.00;;;;;;;;;;5073553;28;20521;-66
2021/06/13 13:28:40;;;;;;;0.37;0.30;;;;;;;;;;5069068;28;20990;-66
2021/06/13 13:31:13;;;;;;;0.17;0.17;;;;;;;;;;5079518;28;20292;-60
2021/06/13 13:33:41;;;;;;;0.07;0.07;;;;;;;;;;5078055;28;20934;-60
2021/06/13 13:36:11;;;;;;;0.10;0.10;;;;;;;;;;5073689;28;20207;-61
2021/06/13 13:38:39;;;;;;;0.00;0.00;;;;;;;;;;5076835;28;20179;-61
2021/06/13 13:41:06;;;;;;;0.00;0.00;;;;;;;;;;5085055;28;20197;-60
2021/06/13 13:43:33;;;;;;;0.13;0.10;;;;;;;;;;5074744;28;20189;-60
2021/06/13 13:46:00;;;;;;;0.00;0.00;;;;;;;;;;5077975;28;20194;-61
2021/06/13 13:48:28;;;;;;;0.00;0.00;;;;;;;;;;5074148;28;20183;-63
2021/06/13 13:51:05;;;;;;;0.00;0.00;;;;;;;;;;5072696;28;20248;-63
2021/06/13 13:53:47;;;;;;;0.13;0.10;;;;;;;;;;5073472;28;20169;-63
2021/06/13 13:56:14;;;;;;;0.00;0.00;;;;;;;;;;5068602;28;20640;-65
2021/06/13 13:58:41;;;;;;;0.00;0.00;;;;;;;;;;5071112;28;20301;-64
2021/06/13 14:01:08;;;;;;;0.20;0.20;;;;;;;;;;5072332;28;20182;-65
2021/06/13 14:03:35;;;;;;;1.40;0.33;;;;;;;;;;5072592;28;20186;-64
2021/06/13 14:06:03;;;;;;;0.00;0.00;;;;;;;;;;5073606;28;20297;-64
2021/06/13 14:08:38;;;;;;;0.47;0.47;;;;;;;;;;5073256;28;20192;-64
2021/06/13 14:11:04;;;;;;;2.20;0.10;;;;;;;;;;5072348;28;21013;-65
2021/06/13 14:13:31;;;;;;;0.00;0.00;;;;;;;;;;5074824;28;20935;-64
2021/06/13 14:15:57;;;;;;;0.87;0.47;;;;;;;;;;5074309;28;20193;-64
2021/06/13 14:18:24;;;;;;;1.13;0.37;;;;;;;;;;5074787;28;20184;-64
2021/06/13 14:20:50;;;;;;;1.30;0.90;;;;;;;;;;5070273;28;20201;-64
2021/06/13 14:23:17;;;;;;;0.43;0.00;;;;;;;;;;5061331;28;20204;-64
2021/06/13 14:25:44;;;;;;;0.40;0.40;;;;;;;;;;5060428;28;20196;-64
2021/06/13 14:28:10;;;;;;;0.00;0.00;;;;;;;;;;5060945;28;20189;-64
2021/06/13 14:30:37;;;;;;;0.00;0.00;;;;;;;;;;5060871;28;20213;-64
2021/06/13 14:33:05;;;;;;;0.53;0.30;;;;;;;;;;5054137;28;20192;-65
2021/06/13 14:35:32;;;;;;;2.63;0.60;;;;;;;;;;5060280;28;20200;-64
2021/06/13 14:37:59;;;;;;;1.33;0.50;;;;;;;;;;5060479;28;20189;-64
2021/06/13 14:40:25;;;;;;;0.40;0.40;;;;;;;;;;5060854;28;20279;-64
2021/06/13 14:42:52;;;;;;;0.00;0.00;;;;;;;;;;5060586;28;20864;-64
2021/06/13 14:45:19;;;;;;;3.13;0.57;;;;;;;;;;5060270;28;20198;-65
2021/06/13 14:47:45;;;;;;;0.43;0.20;;;;;;;;;;5060686;28;20216;-64
2021/06/13 14:50:13;;;;;;;0.00;0.00;;;;;;;;;;5059595;28;20309;-64
2021/06/13 14:52:43;;;;;;;0.10;0.10;;;;;;;;;;5060046;28;20183;-64
2021/06/13 14:55:11;;;;;;;0.10;0.10;;;;;;;;;;5059934;28;20242;-64
2021/06/13 14:57:38;;;;;;;1.60;0.47;;;;;;;;;;5060072;28;20205;-65
2021/06/13 15:00:05;;;;;;;0.00;0.00;;;;;;;;;;5059920;28;20254;-65
2021/06/13 15:02:32;;;;;;;0.00;0.00;;;;;;;;;;5060499;28;20236;-65
2021/06/13 15:04:58;;;;;;;0.90;0.53;;;;;;;;;;5060331;28;20275;-64
2021/06/13 15:07:25;;;;;;;4.40;0.77;;;;;;;;;;5060027;28;20189;-64
2021/06/13 15:09:51;;;;;;;0.10;0.10;;;;;;;;;;5059617;28;20231;-65
2021/06/13 15:12:19;;;;;;;0.00;0.00;;;;;;;;;;5059664;28;20194;-65
2021/06/13 15:14:46;;;;;;;0.20;0.20;;;;;;;;;;5059914;28;20189;-65
2021/06/13 15:17:13;;;;;;;0.20;0.10;;;;;;;;;;5059705;28;20190;-65
2021/06/13 15:19:40;;;;;;;1.03;0.40;;;;;;;;;;5059965;28;20310;-65
2021/06/13 15:22:07;;;;;;;0.00;0.00;;;;;;;;;;5059324;28;20205;-65
2021/06/13 15:24:34;;;;;;;1.43;0.20;;;;;;;;;;5059759;28;20277;-65
2021/06/13 15:27:01;;;;;;;0.40;0.20;;;;;;;;;;5059020;28;20989;-65
2021/06/13 15:29:28;;;;;;;0.00;0.00;;;;;;;;;;5059187;28;20232;-65
2021/06/13 15:31:55;;;;;;;0.00;0.00;;;;;;;;;;5057146;28;20186;-65
2021/06/13 15:34:23;;;;;;;1.70;1.30;;;;;;;;;;5058168;28;20254;-65
2021/06/13 15:36:53;;;;;;;4.60;0.30;;;;;;;;;;5059218;28;21259;-65
2021/06/13 15:39:24;;;;;;;0.20;0.00;;;;;;;;;;5059262;28;20190;-65
2021/06/13 15:41:57;;;;;;;0.00;0.00;;;;;;;;;;5059321;28;20275;-65
2021/06/13 15:44:27;;;;;;;0.20;0.10;;;;;;;;;;5059157;28;20678;-65
2021/06/13 15:46:57;;;;;;;0.37;0.37;;;;;;;;;;5058950;28;20306;-65
2021/06/13 15:49:24;;;;;;;0.00;0.00;;;;;;;;;;5059513;28;20242;-65
2021/06/13 15:51:50;;;;;;;0.50;0.10;;;;;;;;;;5060045;28;20304;-65
2021/06/13 15:54:19;;;;;;;0.10;0.10;;;;;;;;;;5059101;28;20297;-66
2021/06/13 15:56:48;;;;;;;0.00;0.00;;;;;;;;;;5058750;28;20186;-65
2021/06/13 15:59:25;;;;;;;0.27;0.20;;;;;;;;;;5059278;28;20201;-66
2021/06/13 16:01:51;;;;;;;0.00;0.00;;;;;;;;;;5058839;28;20337;-67
2021/06/13 16:04:18;;;;;;;0.10;0.07;;;;;;;;;;5058979;28;20196;-65
2021/06/13 16:06:45;;;;;;;0.53;0.20;;;;;;;;;;5059282;28;20265;-65
2021/06/13 16:09:11;;;;;;;0.00;0.00;;;;;;;;;;5058552;28;20216;-67
2021/06/13 16:11:38;;;;;;;0.10;0.10;;;;;;;;;;5058456;28;20240;-66
2021/06/13 16:14:04;;;;;;;0.00;0.00;;;;;;;;;;5058932;28;20188;-66
2021/06/13 16:16:31;;;;;;;0.00;0.00;;;;;;;;;;5058856;28;20208;-65
2021/06/13 16:18:58;;;;;;;0.00;0.00;;;;;;;;;;5058539;28;20247;-65
2021/06/13 16:21:24;;;;;;;13.00;2.17;;;;;;;;;;5058804;28;20184;-65
2021/06/13 16:23:51;;;;;;;0.00;0.00;;;;;;;;;;5057958;28;20195;-66
2021/06/13 16:26:17;;;;;;;0.10;0.10;;;;;;;;;;5058688;28;20191;-65
2021/06/13 16:28:44;;;;;;;2.20;0.87;;;;;;;;;;5058775;28;20194;-65
2021/06/13 16:31:11;;;;;;;0.07;0.07;;;;;;;;;;5058839;28;20255;-65
2021/06/13 16:33:37;;;;;;;0.17;0.13;;;;;;;;;;5057724;28;20187;-66
2021/06/13 16:36:05;;;;;;;7.63;1.57;;;;;;;;;;5058049;28;20194;-65
2021/06/13 16:38:31;;;;;;;5.57;1.83;;;;;;;;;;5057339;28;20192;-66
2021/06/13 16:40:58;;;;;;;0.60;0.40;;;;;;;;;;5057666;28;20336;-66
2021/06/13 16:43:25;;;;;;;0.00;0.00;;;;;;;;;;5058077;28;20200;-66
2021/06/13 16:45:52;;;;;;;0.00;0.00;;;;;;;;;;5057539;28;20265;-66
2021/06/13 16:48:19;;;;;;;0.37;0.07;;;;;;;;;;5057407;28;20193;-66
2021/06/13 16:50:46;;;;;;;0.00;0.00;;;;;;;;;;5058871;28;20209;-66
2021/06/13 16:53:14;;;;;;;0.30;0.30;;;;;;;;;;5058118;28;20190;-65
2021/06/13 16:55:40;;;;;;;0.00;0.00;;;;;;;;;;5057668;28;21140;-65
2021/06/13 16:58:07;;;;;;;0.43;0.40;;;;;;;;;;5058446;28;20185;-65
2021/06/13 17:00:34;;;;;;;0.00;0.00;;;;;;;;;;5058822;28;20213;-65
2021/06/13 17:03:04;;;;;;;0.00;0.00;;;;;;;;;;5058358;28;20200;-65
2021/06/13 17:05:31;;;;;;;0.10;0.10;;;;;;;;;;5058552;28;20222;-65
2021/06/13 17:08:01;;;;;;;0.30;0.27;;;;;;;;;;5057648;28;20197;-66
2021/06/13 17:10:27;;;;;;;0.00;0.00;;;;;;;;;;5056659;28;20281;-66
2021/06/13 17:12:54;;;;;;;2.67;0.43;;;;;;;;;;5058170;28;20208;-66
2021/06/13 17:15:21;;;;;;;0.80;0.13;;;;;;;;;;5058496;28;20196;-65
2021/06/13 17:17:48;;;;;;;0.93;0.37;;;;;;;;;;5058010;28;20647;-66
2021/06/13 17:20:15;;;;;;;0.40;0.10;;;;;;;;;;5058432;28;20749;-66
2021/06/13 17:22:46;;;;;;;0.10;0.10;;;;;;;;;;5057748;28;20583;-65
2021/06/13 17:25:18;;;;;;;0.00;0.00;;;;;;;;;;5058084;28;20234;-65
2021/06/13 17:27:45;;;;;;;0.00;0.00;;;;;;;;;;5057570;28;20194;-65
2021/06/13 17:30:13;;;;;;;1.50;0.63;;;;;;;;;;5056843;28;20242;-66
2021/06/13 17:32:43;;;;;;;0.60;0.57;;;;;;;;;;5056296;28;20252;-65
2021/06/13 17:35:11;;;;;;;0.10;0.10;;;;;;;;;;5050112;28;20188;-58
2021/06/13 17:37:37;;;;;;;0.00;0.00;;;;;;;;;;5058438;28;21025;-57
2021/06/13 17:40:10;;;;;;;0.87;0.47;;;;;;;;;;5058105;28;20180;-58
2021/06/13 17:42:38;;;;;;;0.00;0.00;;;;;;;;;;5055605;28;20271;-58
2021/06/13 17:45:08;;;;;;;0.63;0.20;;;;;;;;;;5056881;28;20285;-57
2021/06/13 17:47:37;;;;;;;0.53;0.53;;;;;;;;;;5049425;28;20187;-57
2021/06/13 17:50:07;;;;;;;0.10;0.00;;;;;;;;;;5059651;28;20217;-57
2021/06/13 17:52:35;;;;;;;4.77;3.70;;;;;;;;;;5057200;28;20213;-57
2021/06/13 17:55:02;;;;;;;6.27;5.67;;;;;;;;;;5058117;28;20209;-58
2021/06/13 17:57:29;;;;;;;1.93;1.57;;;;;;;;;;5063182;28;20566;-57
2021/06/13 17:59:55;;;;;;;0.50;0.50;;;;;;;;;;5063584;28;20204;-57
2021/06/13 18:02:23;;;;;;;4.13;1.23;;;;;;;;;;5063018;28;20503;-57
2021/06/13 18:04:50;;;;;;;9.13;7.53;;;;;;;;;;5075809;28;20958;-57
2021/06/13 18:07:20;;;;;;;0.00;0.00;;;;;;;;;;5059169;28;20222;-57
2021/06/13 18:09:47;;;;;;;0.00;0.00;;;;;;;;;;5063825;28;20234;-57
2021/06/13 18:12:16;;;;;;;0.93;0.73;;;;;;;;;;5061361;28;20190;-57
2021/06/13 18:14:43;;;;;;;0.60;0.30;;;;;;;;;;5057573;28;20190;-57
2021/06/13 18:17:10;;;;;;;1.20;0.87;;;;;;;;;;5059715;28;20197;-57
2021/06/13 18:19:36;;;;;;;1.33;1.10;;;;;;;;;;5054120;28;20193;-67
2021/06/13 18:22:03;;;;;;;0.13;0.10;;;;;;;;;;5054874;28;20825;-63
2021/06/13 18:24:30;;;;;;;2.43;1.07;;;;;;;;;;5058256;28;20258;-63
2021/06/13 18:26:56;;;;;;;0.50;0.30;;;;;;;;;;5057053;28;20658;-63
2021/06/13 18:29:23;;;;;;;4.97;2.80;;;;;;;;;;5060803;28;20925;-63
2021/06/13 18:31:50;;;;;;;12.10;9.77;;;;;;;;;;5052663;28;20182;-63
2021/06/13 18:34:17;;;;;;;6.90;5.63;;;;;;;;;;5050214;28;20230;-63
2021/06/13 18:36:44;;;;;;;5.47;3.37;;;;;;;;;;5060021;28;20193;-63
2021/06/13 18:39:11;;;;;;;30.03;19.40;;;;;;;;;;5059759;28;20304;-63
2021/06/13 18:41:38;;;;;;;4.03;2.07;;;;;;;;;;5052551;28;20185;-63
2021/06/13 18:44:05;;;;;;;8.80;6.63;;;;;;;;;;5054399;28;20188;-63
2021/06/13 18:46:31;;;;;;;2.50;1.50;;;;;;;;;;5057300;28;20190;-64
2021/06/13 18:48:58;;;;;;;1.70;1.10;;;;;;;;;;5057502;28;20198;-63
2021/06/13 18:51:24;;;;;;;13.60;8.87;;;;;;;;;;5057441;28;20182;-63
2021/06/13 18:53:51;;;;;;;2.23;1.93;;;;;;;;;;5052747;28;20248;-63
2021/06/13 18:56:18;;;;;;;0.20;0.20;;;;;;;;;;5055702;28;20190;-63
2021/06/13 18:58:46;;;;;;;0.73;0.57;;;;;;;;;;5052771;28;20180;-62
2021/06/13 19:01:13;;;;;;;1.03;1.03;;;;;;;;;;5056999;28;20977;-63
2021/06/13 19:03:40;;;;;;;0.00;0.00;;;;;;;;;;5059184;28;20213;-62
2021/06/13 19:06:06;;;;;;;1.33;1.23;;;;;;;;;;5059082;28;20193;-63
2021/06/13 19:08:33;;;;;;;10.97;5.50;;;;;;;;;;5058649;28;20293;-62
2021/06/13 19:11:00;;;;;;;1.90;1.20;;;;;;;;;;5059581;28;20273;-64
2021/06/13 19:13:26;;;;;;;31.73;22.57;;;;;;;;;;5053337;28;20600;-63
2021/06/13 19:15:53;;;;;;;4.90;3.83;;;;;;;;;;5053957;28;20206;-63
2021/06/13 19:18:19;;;;;;;1.13;0.70;;;;;;;;;;5052440;28;20190;-62
2021/06/13 19:20:46;;;;;;;0.50;0.50;;;;;;;;;;5060099;28;20187;-62
2021/06/13 19:23:13;;;;;;;1.13;0.77;;;;;;;;;;5056298;28;20203;-63
2021/06/13 19:25:39;;;;;;;0.60;0.60;;;;;;;;;;5058225;28;20182;-63
2021/06/13 19:28:06;;;;;;;0.50;0.50;;;;;;;;;;5059574;28;20943;-63
2021/06/13 19:30:33;;;;;;;0.00;0.00;;;;;;;;;;5056377;28;20202;-63
2021/06/13 19:33:00;;;;;;;0.17;0.07;;;;;;;;;;5050163;28;20263;-64
2021/06/13 19:35:27;;;;;;;45.70;18.50;;;;;;;;;;5057653;28;20658;-64
2021/06/13 19:37:54;;;;;;;0.00;0.00;;;;;;;;;;5057236;28;20181;-64
2021/06/13 19:40:22;;;;;;;0.63;0.20;;;;;;;;;;5049794;28;20864;-63
2021/06/13 19:42:48;;;;;;;1.53;1.43;;;;;;;;;;5051214;28;20200;-64
2021/06/13 19:45:15;;;;;;;0.20;0.20;;;;;;;;;;5055196;28;20193;-63
2021/06/13 19:47:42;;;;;;;0.20;0.20;;;;;;;;;;5051146;28;20294;-64
2021/06/13 19:50:09;;;;;;;2.60;1.53;;;;;;;;;;5057587;28;20301;-64
2021/06/13 19:52:36;;;;;;;0.27;0.17;;;;;;;;;;5055798;28;20313;-63